ADDS METAR Data INFO
IDs: Format: Raw Decoded Include TAF

Data at: 0538 UTC 11 Dec 2017

KCPU 110515Z AUTO 00000KT 10SM CLR 07/02 A3027 RMK AO2 T00700020